Etusivu
METAR-TAF:

METAR-TAF

Lentoasemat :

Emmen, Sveitsi

Leveyspiiri: 47-05-32N, Pituuspiiri: 8-18-16E, korkeus merenpinnasta: 426 m

Tämänhetkinen sää

Tämä raportti tehtiin 25 minuuttia sitten, kello 14.50 UTC
tyyntä
Lämpötila 22°C
Kosteus 60%
Ilmanpaine 1014 hPa
Näkyvyys 10 km tai enemmän
ei pilviä alle 1500 m:ssä eikä cumulonimbus-pilviä

METAR: LSME 141450Z 00000KT CAVOK 22/14 Q1014 RMK BLU

Aika: 17:15 (15:15 UTC)


TAF: puuttuu

Säähavainnot ja -ennusteet yli 4000 lentoasemalta (METAR- ja TAF-raportit).

Käytössä olevat sääasemat on merkitty karttaan keltaisilla ja punaisilla pisteillä.

Aseta hiiri pisteen päälle nähdäksesi sääaseman nimen.

Klikkaa sitten nähdäksesi säähavainnot ja -ennusteet.

Kartan vaihtaminen: klikkaa mustalla rastilla varustettuja vihreitä pisteitä, niin voit zoomata sisään; viivalla varustettua vihreää pistettä, niin voit zoomata ulos tai vihreitä nuolia, niin pääset viereisille kartoille.


METAR-TAF: